Terminal Aerodrome Forecast
Issued by NWS

Home | Current Version | Previous Version | Text Only | Print | Product List | Glossary On
Versions: 1 2 3 4 5 6 7 8 9 10 11 12 13 14 15 16 17 18 19 20 21 22 23 24 25 26 27 28 29 30 31 32 33 34 35 36
000
FTUS41 KOKX 241740
TAFHPN
TAF
KHPN 241740Z 2418/2518 32007KT 6SM -SHRA SCT025 BKN060
     FM242100 01005KT 6SM -SHRA SCT025 OVC060
     FM250000 VRB04KT 6SM -SHRA SCT020 BKN035
     FM250300 VRB04KT 6SM -SHRA SCT008 BKN015 OVC035
     FM250800 08006KT 2SM RA BR OVC006
     FM251000 09009KT 1SM RA BR OVC004
      AMD NOT SKED=

USA.gov is the U.S. government's official web portal to all federal, state and local government web resources and services.